Time;durP1;ratioP1;P1;durP2;ratioP2;P2;SDS_P1;SDS_P2;PMS_P1;PMS_P2;Temp;Humidity;BMP_temperature;BMP_pressure;BME280_temperature;BME280_humidity;BME280_pressure;Samples;Min_cycle;Max_cycle;Signal;HPM_P1;HPM_P2
2022/09/26 00:04:24;;;;;;;5.20;2.03;;;;;;;13.17;44.21;99913.78;10100152;29;20277;-81
2022/09/26 00:09:47;;;;;;;2.47;1.30;;;;;;;13.06;44.85;99898.53;10110422;29;20297;-81
2022/09/26 00:15:10;;;;;;;2.80;1.33;;;;;;;13.11;44.17;99900.28;10082627;29;20309;-82
2022/09/26 00:20:37;;;;;;;5.93;1.30;;;;;;;12.75;45.50;99884.34;10101396;29;20206;-81
2022/09/26 00:25:59;;;;;;;3.93;1.47;;;;;;;12.68;45.98;99880.13;10131317;29;20252;-81
2022/09/26 00:31:23;;;;;;;4.17;1.80;;;;;;;12.87;45.19;99861.66;10081212;29;20225;-81
2022/09/26 00:36:45;;;;;;;1.87;1.37;;;;;;;12.70;45.62;99843.00;10072504;29;20540;-82
2022/09/26 00:42:14;;;;;;;3.23;1.60;;;;;;;12.82;45.12;99839.28;10104230;29;20234;-81
2022/09/26 00:47:41;;;;;;;5.90;1.90;;;;;;;12.30;46.60;99828.94;10092383;29;20237;-81
2022/09/26 00:53:08;;;;;;;3.73;1.60;;;;;;;12.40;46.41;99822.78;10103778;29;20253;-84
2022/09/26 00:58:38;;;;;;;2.87;1.60;;;;;;;12.48;46.40;99813.34;10091205;29;20269;-83
2022/09/26 01:04:01;;;;;;;3.03;1.40;;;;;;;12.30;46.13;99803.50;10091476;29;20226;-81
2022/09/26 01:09:25;;;;;;;4.03;1.63;;;;;;;12.17;46.99;99801.91;10089015;29;20497;-81
2022/09/26 01:14:53;;;;;;;5.40;1.70;;;;;;;12.48;46.23;99793.56;10091697;29;20285;-81
2022/09/26 01:20:22;;;;;;;4.00;1.43;;;;;;;12.64;45.62;99783.06;10078230;29;20603;-81
2022/09/26 01:26:18;;;;;;;3.90;1.70;;;;;;;12.73;45.88;99773.63;10097025;29;20229;-81
2022/09/26 01:37:48;;;;;;;3.47;1.60;;;;;;;12.44;46.20;99763.53;10097378;29;20226;-81
2022/09/26 01:43:22;;;;;;;1.77;1.67;;;;;;;;;;10097676;29;20198;-81
2022/09/26 01:48:53;;;;;;;4.80;2.33;;;;;;;12.98;45.09;99750.44;10099391;29;20229;-81
2022/09/26 01:54:19;;;;;;;5.60;1.87;;;;;;;12.47;46.24;99741.03;10097913;29;20802;-82
2022/09/26 01:59:46;;;;;;;2.93;1.60;;;;;;;13.16;45.13;99731.03;10092753;29;20281;-81
2022/09/26 02:05:21;;;;;;;2.73;1.47;;;;;;;12.37;46.49;99721.78;10108734;29;20257;-83
2022/09/26 02:10:49;;;;;;;3.23;1.80;;;;;;;12.29;46.72;99709.44;10093173;29;20194;-81
2022/09/26 02:16:27;;;;;;;1.57;1.30;;;;;;;12.69;45.81;99706.47;10081947;29;20646;-82
2022/09/26 02:21:50;;;;;;;4.57;2.20;;;;;;;12.14;47.10;99701.75;10113742;29;20206;-80
2022/09/26 02:27:13;;;;;;;5.67;2.40;;;;;;;12.20;47.18;99696.66;10095142;29;20619;-81
2022/09/26 02:32:36;;;;;;;3.73;2.13;;;;;;;12.11;47.45;99696.00;10101692;29;20246;-81
2022/09/26 02:37:58;;;;;;;3.23;2.00;;;;;;;12.41;47.09;99677.47;10117190;29;20229;-82
2022/09/26 02:43:43;;;;;;;3.10;2.33;;;;;;;12.38;47.63;99671.75;10102286;29;20202;-81
2022/09/26 02:49:31;;;;;;;3.30;2.90;;;;;;;12.17;48.61;99660.66;10112230;29;20290;-81
2022/09/26 02:55:20;;;;;;;6.10;3.00;;;;;;;11.86;49.07;99650.94;10095589;29;20225;-81
2022/09/26 03:00:56;;;;;;;8.50;3.40;;;;;;;11.81;48.71;99637.09;10090152;29;20209;-85
2022/09/26 03:06:23;;;;;;;5.90;3.80;;;;;;;11.76;49.09;99623.22;10091272;29;20206;-82
2022/09/26 03:11:46;;;;;;;7.20;4.20;;;;;;;11.71;49.77;99615.03;10091231;29;20273;-81
2022/09/26 03:17:09;;;;;;;9.33;4.70;;;;;;;11.75;50.10;99612.28;10088462;29;20282;-81
2022/09/26 03:22:32;;;;;;;7.27;4.20;;;;;;;12.60;47.66;99600.41;10081788;29;20206;-81
2022/09/26 03:27:54;;;;;;;10.27;4.87;;;;;;;11.56;50.36;99590.41;10094235;29;20277;-81
2022/09/26 03:33:17;;;;;;;8.70;5.00;;;;;;;12.69;48.09;99582.06;10095800;29;20600;-82
2022/09/26 03:38:39;;;;;;;6.23;5.63;;;;;;;12.67;47.58;99575.13;10091082;29;20261;-81
2022/09/26 03:44:10;;;;;;;6.60;5.07;;;;;;;12.08;49.08;99572.44;10092830;29;20254;-81
2022/09/26 03:49:47;;;;;;;7.40;4.77;;;;;;;12.45;47.91;99570.16;10106941;29;20619;-81
2022/09/26 03:55:10;;;;;;;7.87;5.30;;;;;;;12.69;47.61;99544.50;10086825;29;21598;-81
2022/09/26 04:00:32;;;;;;;6.80;4.87;;;;;;;12.04;49.55;99538.44;10099107;29;20798;-81
2022/09/26 04:05:54;;;;;;;7.57;5.33;;;;;;;11.95;49.76;99530.19;10098131;29;20259;-81
2022/09/26 04:11:20;;;;;;;6.97;5.17;;;;;;;12.01;49.61;99521.41;10107347;29;20515;-81
2022/09/26 04:16:44;;;;;;;7.53;5.40;;;;;;;12.44;48.98;99507.16;10111818;29;20535;-81
2022/09/26 04:22:11;;;;;;;10.03;5.63;;;;;;;12.09;50.15;99507.13;10104892;29;20238;-82
2022/09/26 04:27:34;;;;;;;8.20;6.63;;;;;;;11.91;50.33;99488.91;10150381;29;20708;-81
2022/09/26 04:33:01;;;;;;;9.17;4.87;;;;;;;12.06;50.32;99487.25;10120092;29;20201;-81
2022/09/26 04:38:38;;;;;;;6.50;5.57;;;;;;;11.92;49.87;99471.59;10125151;29;20268;-82
2022/09/26 04:44:00;;;;;;;8.37;5.80;;;;;;;12.45;48.18;99463.59;10119298;29;20197;-81
2022/09/26 04:49:22;;;;;;;9.10;6.67;;;;;;;11.64;51.20;99468.06;10118674;29;20256;-81
2022/09/26 04:54:46;;;;;;;8.23;5.93;;;;;;;12.99;46.94;99448.59;10127508;29;20250;-80
2022/09/26 05:00:10;;;;;;;9.23;6.03;;;;;;;12.14;49.46;99449.50;10110849;29;20206;-81
2022/09/26 05:05:37;;;;;;;8.67;6.67;;;;;;;11.93;50.05;99447.00;10099833;29;20238;-81
2022/09/26 05:11:01;;;;;;;9.33;5.47;;;;;;;12.41;49.30;99431.59;10102638;29;20572;-81
2022/09/26 05:16:27;;;;;;;7.97;6.37;;;;;;;12.50;48.72;99432.22;10101982;29;20543;-78
2022/09/26 05:21:50;;;;;;;8.70;6.33;;;;;;;12.20;49.41;99417.78;10121301;29;20233;-80
2022/09/26 05:27:14;;;;;;;8.07;5.90;;;;;;;12.19;49.72;99418.97;10111938;29;20218;-80
2022/09/26 05:32:36;;;;;;;13.33;6.00;;;;;;;11.68;50.17;99403.22;10104907;29;20514;-82
2022/09/26 05:38:02;;;;;;;8.93;6.07;;;;;;;12.32;48.26;99403.53;10104849;29;20516;-81
2022/09/26 05:43:26;;;;;;;9.53;5.63;;;;;;;12.26;48.83;99393.69;10103323;29;20612;-79
2022/09/26 05:48:49;;;;;;;6.73;4.70;;;;;;;11.63;49.56;99393.03;10091409;29;20274;-80
2022/09/26 05:54:11;;;;;;;7.77;4.20;;;;;;;12.85;46.43;99397.38;10095209;29;20270;-79
2022/09/26 05:59:37;;;;;;;6.90;4.60;;;;;;;11.08;51.00;99399.66;10099955;29;20237;-80
2022/09/26 06:04:59;;;;;;;8.00;4.20;;;;;;;11.86;48.62;99393.97;10116288;29;20611;-80
2022/09/26 06:10:27;;;;;;;8.23;4.40;;;;;;;12.29;47.74;99386.50;10103588;29;20213;-80
2022/09/26 06:15:50;;;;;;;8.63;4.13;;;;;;;11.47;49.12;99383.75;10115831;29;20250;-80
2022/09/26 06:21:15;;;;;;;6.23;4.27;;;;;;;11.56;48.65;99364.63;10110299;29;20258;-79
2022/09/26 06:26:43;;;;;;;7.70;3.80;;;;;;;12.05;47.80;99362.16;10101793;29;20703;-80
2022/09/26 06:32:05;;;;;;;12.10;4.27;;;;;;;11.61;49.24;99355.88;10115888;29;20257;-79
2022/09/26 06:37:46;;;;;;;9.90;3.60;;;;;;;12.18;47.28;99343.88;10101392;29;20225;-80
2022/09/26 06:43:09;;;;;;;6.67;4.00;;;;;;;11.75;48.62;99330.81;10097592;29;20214;-81
2022/09/26 06:48:43;;;;;;;5.67;3.37;;;;;;;12.66;46.84;99311.38;10102065;29;20266;-80
2022/09/26 06:54:22;;;;;;;5.20;3.63;;;;;;;12.53;46.54;99312.75;10100742;29;20229;-80
2022/09/26 06:59:47;;;;;;;8.80;3.00;;;;;;;11.77;47.37;99308.69;10116472;29;20214;-79
2022/09/26 07:05:28;;;;;;;4.57;2.87;;;;;;;12.50;45.93;99285.25;10104935;29;20202;-80
2022/09/26 07:10:51;;;;;;;6.13;3.00;;;;;;;12.08;47.52;99290.00;10100724;29;20234;-79
2022/09/26 07:16:13;;;;;;;5.20;3.00;;;;;;;12.72;45.56;99285.66;10074440;29;20547;-80
2022/09/26 07:21:55;;;;;;;5.30;2.90;;;;;;;13.12;45.01;99279.50;10109360;29;20233;-80
2022/09/26 07:27:23;;;;;;;6.13;2.67;;;;;;;13.68;43.95;99259.78;10100148;29;20226;-80
2022/09/26 07:32:46;;;;;;;6.40;2.47;;;;;;;12.44;45.88;99254.81;10100744;29;20611;-80
2022/09/26 07:38:20;;;;;;;3.77;2.60;;;;;;;12.94;44.59;99253.72;10091043;29;20301;-80
2022/09/26 07:43:43;;;;;;;4.10;1.97;;;;;;;13.31;44.55;99248.28;10092269;29;20508;-80
2022/09/26 07:54:57;;;;;;;3.43;2.00;;;;;;;13.17;44.20;99254.50;10118635;29;20264;-80
2022/09/26 08:00:39;;;;;;;3.63;1.50;;;;;;;12.68;44.50;99237.50;10135548;29;20501;-79
2022/09/26 08:06:19;;;;;;;4.50;1.50;;;;;;;13.12;43.81;99237.88;10120647;29;20206;-80
2022/09/26 08:11:42;;;;;;;2.17;1.93;;;;;;;12.47;44.82;99229.47;10100157;29;20205;-80
2022/09/26 08:17:42;;;;;;;4.37;1.03;;;;;;;13.43;42.99;99225.41;10093922;29;20261;-80
2022/09/26 08:23:05;;;;;;;4.17;1.70;;;;;;;13.51;42.38;99218.69;10101575;29;20670;-80
2022/09/26 08:28:47;;;;;;;4.50;1.50;;;;;;;12.24;45.55;99212.47;10099998;29;20197;-80
2022/09/26 08:34:09;;;;;;;1.63;1.33;;;;;;;12.66;45.70;99212.44;10098481;29;20198;-80
2022/09/26 08:39:51;;;;;;;3.13;2.20;;;;;;;11.62;48.76;99216.41;10094274;29;20204;-80
2022/09/26 08:52:11;;;;;;;5.23;2.03;;;;;;;12.62;47.43;99211.59;10061989;29;20199;-80
2022/09/26 08:58:03;;;;;;;2.67;1.40;;;;;;;12.36;48.35;99217.16;10097603;29;20723;-80
2022/09/26 09:03:55;;;;;;;9.03;1.87;;;;;;;12.57;48.90;99216.72;10087751;29;20557;-80
2022/09/26 09:09:17;;;;;;;3.40;1.30;;;;;;;12.30;48.87;99227.91;10113414;29;20493;-80
2022/09/26 09:15:06;;;;;;;4.60;1.60;;;;;;;12.23;49.31;99215.66;10087544;29;20230;-81
2022/09/26 09:20:56;;;;;;;2.43;1.40;;;;;;;12.31;49.07;99208.94;10097843;29;20202;-80
2022/09/26 09:26:52;;;;;;;5.87;1.70;;;;;;;11.90;50.25;99194.41;10097889;29;20258;-80
2022/09/26 09:32:18;;;;;;;3.50;1.63;;;;;;;11.86;50.35;99199.16;10105546;29;20234;-80
2022/09/26 09:37:51;;;;;;;4.27;1.83;;;;;;;11.81;51.05;99185.38;10077567;29;20561;-80
2022/09/26 09:43:25;;;;;;;2.07;1.33;;;;;;;11.19;52.25;99180.75;10110110;29;20206;-81
2022/09/26 09:48:50;;;;;;;3.33;1.60;;;;;;;11.54;52.42;99175.13;10105046;29;20250;-79
2022/09/26 09:54:24;;;;;;;3.37;1.27;;;;;;;11.72;51.41;99158.56;10106979;29;20274;-80
2022/09/26 09:59:58;;;;;;;4.07;2.50;;;;;;;11.77;52.68;99153.41;10138534;29;20537;-80
2022/09/26 10:05:41;;;;;;;2.57;1.73;;;;;;;11.25;53.40;99157.53;10144813;29;20210;-80
2022/09/26 10:11:11;;;;;;;4.83;2.10;;;;;;;11.81;52.94;99133.72;10118657;29;20242;-80
2022/09/26 10:17:08;;;;;;;2.23;2.03;;;;;;;11.20;55.06;99126.81;10121708;29;20217;-80
2022/09/26 10:22:43;;;;;;;4.30;1.10;;;;;;;11.41;54.33;99114.34;10140670;29;20257;-80
2022/09/26 10:28:06;;;;;;;1.13;0.97;;;;;;;12.14;52.83;99091.59;10138655;29;20197;-80
2022/09/26 10:33:32;;;;;;;3.90;1.37;;;;;;;11.69;53.69;99083.09;10120285;29;20209;-80
2022/09/26 10:45:18;;;;;;;1.20;0.80;;;;;;;11.86;53.40;99049.53;10144252;29;20663;-80
2022/09/26 10:51:06;;;;;;;3.27;0.90;;;;;;;11.89;51.98;99040.31;10118171;29;20611;-80
2022/09/26 10:56:42;;;;;;;2.47;1.00;;;;;;;12.49;51.04;99034.91;10101077;29;20325;-80
2022/09/26 11:02:15;;;;;;;1.47;0.70;;;;;;;12.78;50.26;99026.81;10122338;29;20210;-79
2022/09/26 11:07:41;;;;;;;1.10;0.60;;;;;;;12.01;51.71;99019.53;10108378;29;20243;-79
2022/09/26 11:13:25;;;;;;;1.33;0.83;;;;;;;12.13;51.68;99012.88;10089912;29;20281;-79
2022/09/26 11:18:59;;;;;;;2.30;0.80;;;;;;;11.91;51.33;99006.88;10094312;29;20230;-79
2022/09/26 11:24:28;;;;;;;2.40;1.20;;;;;;;12.12;51.15;99011.28;10114349;29;20698;-79
2022/09/26 11:30:00;;;;;;;2.50;0.57;;;;;;;12.27;51.02;99011.09;10137572;29;20197;-79
2022/09/26 11:36:01;;;;;;;2.40;0.83;;;;;;;11.79;51.25;98990.13;10127918;29;20217;-79
2022/09/26 11:41:45;;;;;;;1.77;0.60;;;;;;;12.52;49.49;98983.25;10137166;29;20201;-80
2022/09/26 11:47:26;;;;;;;2.30;0.60;;;;;;;12.99;49.19;98951.59;10120366;29;20202;-79
2022/09/26 11:53:25;;;;;;;1.10;0.60;;;;;;;13.04;48.03;98956.88;10089508;29;20266;-79
2022/09/26 11:58:58;;;;;;;3.83;1.00;;;;;;;12.61;48.96;98940.59;10106600;29;20324;-80
2022/09/26 12:04:44;;;;;;;2.93;0.83;;;;;;;12.09;50.02;98918.81;10100509;29;20226;-80
2022/09/26 12:10:45;;;;;;;1.70;0.70;;;;;;;12.78;48.35;98923.03;10111598;29;20503;-80
2022/09/26 12:16:23;;;;;;;3.77;0.50;;;;;;;12.30;48.82;98917.13;10088001;29;20222;-79
2022/09/26 12:22:35;;;;;;;2.07;0.80;;;;;;;13.01;47.40;98914.44;10109296;29;20294;-79
2022/09/26 12:28:15;;;;;;;0.60;0.60;;;;;;;12.78;47.06;98888.28;10087348;29;20224;-80
2022/09/26 12:34:19;;;;;;;2.57;0.90;;;;;;;13.26;46.72;98887.25;10104496;29;20232;-79
2022/09/26 12:40:13;;;;;;;3.57;0.90;;;;;;;13.95;45.46;98869.63;10105063;29;20277;-80
2022/09/26 12:45:57;;;;;;;1.03;0.80;;;;;;;12.75;47.19;98877.78;10097147;29;20541;-79
2022/09/26 12:51:27;;;;;;;1.33;0.50;;;;;;;12.97;47.00;98871.16;10102365;29;20206;-80
2022/09/26 12:57:10;;;;;;;1.80;0.60;;;;;;;12.83;47.28;98863.31;10097857;29;20626;-79
2022/09/26 13:02:41;;;;;;;2.07;0.50;;;;;;;12.68;48.65;98868.00;10098236;29;20200;-79
2022/09/26 13:08:21;;;;;;;1.47;0.57;;;;;;;12.56;50.77;98875.91;10115348;29;20202;-80
2022/09/26 13:13:57;;;;;;;2.43;0.70;;;;;;;11.79;52.77;98865.94;10111527;29;20221;-79
2022/09/26 13:19:31;;;;;;;3.83;1.00;;;;;;;13.23;50.47;98862.56;10109915;29;20249;-80
2022/09/26 13:25:18;;;;;;;2.20;1.07;;;;;;;12.80;51.36;98857.63;10105004;29;20241;-80
2022/09/26 13:30:45;;;;;;;1.60;0.60;;;;;;;12.51;51.90;98857.28;10103422;29;20600;-80
2022/09/26 13:36:08;;;;;;;3.60;1.00;;;;;;;13.21;51.32;98862.13;10105179;29;20214;-80
2022/09/26 13:41:54;;;;;;;4.57;1.00;;;;;;;12.55;52.06;98852.47;10124233;29;20210;-80
2022/09/26 13:47:40;;;;;;;3.67;1.00;;;;;;;12.84;52.86;98833.03;10113905;29;20194;-80
2022/09/26 13:53:20;;;;;;;1.00;0.80;;;;;;;12.63;52.68;98833.63;10120372;29;20206;-80
2022/09/26 13:58:42;;;;;;;1.77;0.83;;;;;;;12.45;52.81;98830.56;10106898;29;20572;-80
2022/09/26 14:04:18;;;;;;;1.20;0.80;;;;;;;12.60;52.63;98823.06;10113543;29;20247;-80
2022/09/26 14:09:42;;;;;;;2.90;0.70;;;;;;;12.88;51.66;98819.75;10126524;29;20206;-79
2022/09/26 14:15:16;;;;;;;1.80;0.70;;;;;;;12.86;51.45;98811.66;10110575;29;20249;-80
2022/09/26 14:20:52;;;;;;;2.23;0.63;;;;;;;12.55;51.87;98807.25;10118782;29;20926;-79
2022/09/26 14:26:26;;;;;;;3.13;0.70;;;;;;;12.08;52.53;98798.56;10110712;29;20226;-80
2022/09/26 14:31:58;;;;;;;2.97;1.10;;;;;;;11.88;53.06;98795.88;10096660;29;20448;-81
2022/09/26 14:37:23;;;;;;;3.23;0.87;;;;;;;13.33;50.08;98785.44;10100425;29;20286;-79
2022/09/26 14:42:51;;;;;;;4.13;0.80;;;;;;;13.03;50.99;98781.94;10114582;29;20262;-79
2022/09/26 14:48:24;;;;;;;5.13;1.00;;;;;;;12.32;51.76;98769.81;10105947;29;20205;-79
2022/09/26 14:53:47;;;;;;;1.00;0.60;;;;;;;12.08;52.58;98759.03;10109489;29;20607;-80
2022/09/26 14:59:15;;;;;;;3.23;0.80;;;;;;;13.39;50.20;98749.94;10123370;29;20229;-79
2022/09/26 15:04:37;;;;;;;4.67;0.97;;;;;;;12.71;51.51;98752.53;10120765;29;20204;-80
2022/09/26 15:10:07;;;;;;;1.63;0.53;;;;;;;12.30;53.32;98755.28;10118511;29;20285;-80
2022/09/26 15:15:44;;;;;;;2.20;1.00;;;;;;;12.19;53.16;98743.84;10129142;29;20627;-80
2022/09/26 15:21:16;;;;;;;2.37;1.10;;;;;;;12.30;52.57;98727.84;10127533;29;20206;-80
2022/09/26 15:26:38;;;;;;;1.07;0.80;;;;;;;12.72;52.15;98712.56;10115818;29;20292;-79
2022/09/26 15:32:01;;;;;;;4.30;0.90;;;;;;;12.52;52.35;98706.28;10143823;29;20655;-80
2022/09/26 15:37:28;;;;;;;3.00;0.97;;;;;;;11.68;54.72;98706.91;10126348;29;20229;-79
2022/09/26 15:43:08;;;;;;;2.33;1.70;;;;;;;12.24;54.21;98694.69;10106945;29;20213;-81
2022/09/26 15:48:31;;;;;;;3.50;0.97;;;;;;;11.58;56.55;98701.94;10113646;29;20245;-80
2022/09/26 15:54:00;;;;;;;2.47;1.10;;;;;;;12.04;56.02;98684.75;10138282;29;20221;-80
2022/09/26 15:59:29;;;;;;;5.47;1.00;;;;;;;11.93;55.19;98684.63;10136095;29;20248;-81
2022/09/26 16:04:51;;;;;;;1.57;0.60;;;;;;;11.86;54.77;98684.56;10104215;29;20222;-80
2022/09/26 16:10:22;;;;;;;1.30;0.70;;;;;;;11.83;55.22;98674.03;10130670;29;20197;-80
2022/09/26 16:15:44;;;;;;;2.63;0.90;;;;;;;12.69;53.23;98660.44;10129850;29;20222;-79
2022/09/26 16:21:18;;;;;;;3.33;0.90;;;;;;;11.96;54.40;98662.09;10119894;29;20280;-79
2022/09/26 16:26:41;;;;;;;0.90;0.70;;;;;;;11.85;54.63;98660.34;10108072;29;20229;-79
2022/09/26 16:32:04;;;;;;;1.27;0.60;;;;;;;12.30;52.89;98659.22;10109591;29;20662;-79
2022/09/26 16:37:26;;;;;;;3.00;0.80;;;;;;;12.38;53.03;98648.84;10126102;29;20225;-79
2022/09/26 16:42:48;;;;;;;3.40;0.80;;;;;;;11.95;54.20;98649.19;10117033;29;20995;-80
2022/09/26 16:48:36;;;;;;;2.03;0.80;;;;;;;11.58;55.88;98648.31;10117746;29;20253;-81
2022/09/26 16:54:06;;;;;;;2.07;0.77;;;;;;;12.57;53.10;98634.47;10128526;29;20327;-81
2022/09/26 16:59:31;;;;;;;3.00;1.10;;;;;;;12.21;55.17;98627.66;10137422;29;20248;-80
2022/09/26 17:04:53;;;;;;;2.87;1.00;;;;;;;11.76;56.15;98635.22;10109819;29;20262;-80
2022/09/26 17:10:17;;;;;;;1.87;0.97;;;;;;;11.17;57.63;98619.94;10096227;29;20203;-81
2022/09/26 17:15:40;;;;;;;2.27;1.00;;;;;;;11.84;56.38;98613.56;10114297;29;20284;-80
2022/09/26 17:21:02;;;;;;;1.17;0.93;;;;;;;11.98;56.78;98616.53;10109278;29;20258;-80
2022/09/26 17:26:24;;;;;;;3.33;1.27;;;;;;;11.66;58.05;98607.69;10098334;29;20290;-80
2022/09/26 17:31:46;;;;;;;1.10;0.83;;;;;;;12.30;55.68;98597.88;10132749;29;20230;-81
2022/09/26 17:37:08;;;;;;;2.90;1.27;;;;;;;11.20;57.87;98592.97;10114006;29;20590;-80
2022/09/26 17:42:30;;;;;;;2.43;1.10;;;;;;;11.79;57.23;98589.31;10130149;29;20205;-80
2022/09/26 17:47:56;;;;;;;3.00;1.30;;;;;;;11.70;57.64;98583.16;10136569;29;20197;-80
2022/09/26 17:53:19;;;;;;;1.97;0.93;;;;;;;11.34;58.88;98573.44;10124768;29;20206;-80
2022/09/26 17:58:43;;;;;;;3.07;1.20;;;;;;;11.50;58.10;98565.56;10106756;29;20262;-80
2022/09/26 18:04:11;;;;;;;4.67;1.60;;;;;;;11.32;59.50;98564.53;10124199;29;20201;-79
2022/09/26 18:09:33;;;;;;;1.30;1.20;;;;;;;11.27;58.44;98562.84;10141967;29;20607;-80
2022/09/26 18:14:56;;;;;;;1.60;1.10;;;;;;;11.00;60.94;98543.56;10123993;29;20233;-79
2022/09/26 18:20:33;;;;;;;3.93;1.53;;;;;;;11.58;58.34;98544.72;10129668;29;20301;-81
2022/09/26 18:25:59;;;;;;;1.27;1.17;;;;;;;11.75;58.70;98526.34;10123266;29;20703;-80
2022/09/26 18:31:26;;;;;;;4.20;1.50;;;;;;;10.83;61.69;98526.00;10107139;29;20258;-81
2022/09/26 18:36:50;;;;;;;2.20;1.53;;;;;;;11.41;59.97;98525.56;10090547;29;20195;-79
2022/09/26 18:42:17;;;;;;;2.90;1.90;;;;;;;11.45;58.98;98528.41;10104866;29;20201;-78
2022/09/26 18:47:41;;;;;;;1.53;1.20;;;;;;;11.81;58.48;98524.81;10106699;29;20262;-80
2022/09/26 18:53:12;;;;;;;1.73;1.40;;;;;;;11.24;60.18;98518.50;10112552;29;20603;-80
2022/09/26 18:58:34;;;;;;;2.63;1.23;;;;;;;10.74;61.07;98525.47;10108625;29;20308;-81
2022/09/26 19:03:58;;;;;;;1.50;1.07;;;;;;;11.75;58.15;98515.06;10116498;29;20254;-78
2022/09/26 19:09:21;;;;;;;3.20;1.67;;;;;;;11.84;57.92;98512.75;10107190;29;20198;-79
2022/09/26 19:14:43;;;;;;;2.13;1.60;;;;;;;11.80;58.57;98506.25;10121633;29;20567;-81
2022/09/26 19:20:06;;;;;;;2.07;1.03;;;;;;;11.52;58.77;98518.03;10124337;29;20672;-82
2022/09/26 19:25:29;;;;;;;2.77;1.50;;;;;;;11.49;58.59;98515.19;10131033;29;20241;-82
2022/09/26 19:30:51;;;;;;;1.60;1.10;;;;;;;11.59;59.05;98506.03;10109670;29;20265;-82
2022/09/26 19:36:15;;;;;;;3.50;1.60;;;;;;;11.59;59.26;98506.84;10108278;29;20233;-82
2022/09/26 19:41:37;;;;;;;1.80;1.40;;;;;;;11.18;61.50;98511.59;10131682;29;20213;-81
2022/09/26 19:47:00;;;;;;;3.47;1.80;;;;;;;11.43;60.47;98491.31;10121676;29;20201;-80
2022/09/26 19:52:23;;;;;;;3.13;2.77;;;;;;;11.68;59.78;98492.41;10104060;29;20298;-81
2022/09/26 19:57:45;;;;;;;2.50;2.23;;;;;;;12.50;57.06;98491.13;10131629;29;20634;-81
2022/09/26 20:03:16;;;;;;;3.13;2.40;;;;;;;12.35;58.13;98492.19;10112765;29;20210;-79
2022/09/26 20:08:39;;;;;;;4.00;2.67;;;;;;;12.71;55.50;98478.31;10101912;29;20806;-81
2022/09/26 20:19:44;;;;;;;2.43;2.23;;;;;;;12.31;57.21;98474.41;10101425;29;20311;-79
2022/09/26 20:25:13;;;;;;;5.83;3.70;;;;;;;12.20;58.73;98473.50;10114822;29;20248;-81
2022/09/26 20:30:50;;;;;;;4.37;3.13;;;;;;;11.79;58.87;98473.56;10094983;29;20264;-81
2022/09/26 20:36:12;;;;;;;4.57;3.33;;;;;;;11.78;59.11;98466.31;10085530;29;20517;-81
2022/09/26 20:41:39;;;;;;;4.13;3.30;;;;;;;12.64;56.35;98454.44;10082784;29;20249;-79
2022/09/26 20:47:05;;;;;;;4.13;3.13;;;;;;;12.28;57.55;98458.22;10108777;29;20217;-79
2022/09/26 20:52:28;;;;;;;3.23;2.60;;;;;;;12.39;56.49;98467.63;10097927;29;20541;-79
2022/09/26 20:57:50;;;;;;;5.40;3.50;;;;;;;12.73;56.03;98462.59;10112214;29;20248;-79
2022/09/26 21:03:15;;;;;;;5.03;3.50;;;;;;;12.79;55.21;98460.19;10121608;29;20254;-79
2022/09/26 21:08:37;;;;;;;4.70;4.00;;;;;;;13.08;54.80;98456.28;10104898;29;20223;-79
2022/09/26 21:13:59;;;;;;;6.23;3.53;;;;;;;12.67;56.68;98452.84;10127055;29;20285;-80
2022/09/26 21:19:22;;;;;;;8.03;3.70;;;;;;;12.38;57.29;98443.41;10096013;29;20317;-80
2022/09/26 21:25:05;;;;;;;8.50;4.00;;;;;;;12.36;57.04;98445.81;10101375;29;20312;-79
2022/09/26 21:30:28;;;;;;;6.87;3.20;;;;;;;11.90;58.54;98432.13;10098846;29;20477;-80
2022/09/26 21:35:51;;;;;;;5.40;3.47;;;;;;;12.42;56.63;98424.47;10119050;29;20547;-80
2022/09/26 21:41:13;;;;;;;8.53;4.23;;;;;;;12.24;58.10;98426.34;10134825;29;20244;-80
2022/09/26 21:46:35;;;;;;;9.07;3.87;;;;;;;11.79;58.44;98425.59;10125553;29;20209;-80
2022/09/26 21:52:10;;;;;;;6.37;4.00;;;;;;;12.46;57.93;98419.66;10123930;29;20198;-79
2022/09/26 21:57:33;;;;;;;10.37;3.60;;;;;;;11.93;58.18;98420.06;10125528;29;20283;-82
2022/09/26 22:02:59;;;;;;;12.40;3.90;;;;;;;12.17;57.67;98409.34;10119395;29;20265;-79
2022/09/26 22:08:21;;;;;;;12.30;4.83;;;;;;;12.44;56.11;98399.44;10130845;29;20201;-79
2022/09/26 22:13:43;;;;;;;13.83;5.77;;;;;;;12.04;57.70;98403.19;10110653;29;20687;-80
2022/09/26 22:19:05;;;;;;;16.33;6.43;;;;;;;12.68;55.05;98395.94;10103805;29;20272;-81
2022/09/26 22:24:28;;;;;;;15.83;7.27;;;;;;;12.19;56.80;98387.16;10136643;29;20289;-81
2022/09/26 22:29:50;;;;;;;12.80;7.87;;;;;;;12.38;57.45;98388.94;10121168;29;20224;-82
2022/09/26 22:35:13;;;;;;;12.93;7.53;;;;;;;12.30;57.78;98377.53;10118485;29;20278;-83
2022/09/26 22:40:35;;;;;;;13.27;8.53;;;;;;;11.80;59.35;98372.78;10129934;29;20225;-82
2022/09/26 22:46:01;;;;;;;10.87;7.43;;;;;;;12.60;56.53;98374.50;10114987;29;20206;-82
2022/09/26 22:51:23;;;;;;;16.13;9.53;;;;;;;13.26;55.14;98361.00;10102715;29;20201;-82
2022/09/26 22:56:45;;;;;;;14.20;8.50;;;;;;;12.73;55.97;98365.69;10079839;29;20602;-82
2022/09/26 23:02:08;;;;;;;12.60;8.43;;;;;;;13.03;55.89;98357.69;10085662;29;20229;-80
2022/09/26 23:07:30;;;;;;;16.27;10.17;;;;;;;13.60;54.02;98352.13;10099304;29;20206;-81
2022/09/26 23:12:52;;;;;;;18.03;10.27;;;;;;;12.63;56.57;98362.41;10135931;29;20753;-80
2022/09/26 23:18:14;;;;;;;20.43;10.70;;;;;;;13.02;56.19;98356.09;10138285;29;20249;-80
2022/09/26 23:23:37;;;;;;;14.83;9.73;;;;;;;13.26;55.05;98357.38;10141146;29;20272;-80
2022/09/26 23:28:59;;;;;;;9.63;7.80;;;;;;;12.73;56.29;98362.84;10126886;29;20201;-80
2022/09/26 23:34:21;;;;;;;6.70;5.53;;;;;;;12.54;56.53;98367.59;10138774;29;20209;-82
2022/09/26 23:39:43;;;;;;;8.10;5.17;;;;;;;12.38;57.50;98372.78;10139218;29;20335;-80
2022/09/26 23:45:06;;;;;;;6.33;4.40;;;;;;;12.19;56.34;98381.50;10138376;29;20202;-83
2022/09/26 23:50:28;;;;;;;4.57;3.27;;;;;;;12.55;55.18;98380.53;10139333;29;20242;-80
2022/09/26 23:55:50;;;;;;;3.50;2.07;;;;;;;11.50;58.37;98381.38;10137526;29;20595;-82
